sensor_id;sensor_type;location;lat;lon;timestamp;P1;durP1;ratioP1;P2;durP2;ratioP2
29030;SDS011;16122;50.236;11.734;2023-07-30T00:00:56;2.60;;;1.00;;
29030;SDS011;16122;50.236;11.734;2023-07-30T00:03:22;1.50;;;1.10;;
29030;SDS011;16122;50.236;11.734;2023-07-30T00:05:51;1.20;;;1.07;;
29030;SDS011;16122;50.236;11.734;2023-07-30T00:08:18;1.40;;;1.13;;
29030;SDS011;16122;50.236;11.734;2023-07-30T00:10:44;1.57;;;1.10;;
29030;SDS011;16122;50.236;11.734;2023-07-30T00:13:09;1.53;;;1.00;;
29030;SDS011;16122;50.236;11.734;2023-07-30T00:15:35;1.00;;;0.90;;
29030;SDS011;16122;50.236;11.734;2023-07-30T00:18:02;0.87;;;0.73;;
29030;SDS011;16122;50.236;11.734;2023-07-30T00:20:27;1.00;;;0.90;;
29030;SDS011;16122;50.236;11.734;2023-07-30T00:22:53;1.00;;;0.90;;
29030;SDS011;16122;50.236;11.734;2023-07-30T00:25:19;1.77;;;0.90;;
29030;SDS011;16122;50.236;11.734;2023-07-30T00:27:45;1.63;;;1.23;;
29030;SDS011;16122;50.236;11.734;2023-07-30T00:30:11;1.10;;;1.00;;
29030;SDS011;16122;50.236;11.734;2023-07-30T00:32:37;1.13;;;1.03;;
29030;SDS011;16122;50.236;11.734;2023-07-30T00:35:08;1.10;;;1.00;;
29030;SDS011;16122;50.236;11.734;2023-07-30T00:37:35;1.10;;;1.00;;
29030;SDS011;16122;50.236;11.734;2023-07-30T00:40:01;1.20;;;1.10;;
29030;SDS011;16122;50.236;11.734;2023-07-30T00:42:28;0.90;;;0.80;;
29030;SDS011;16122;50.236;11.734;2023-07-30T00:44:54;1.67;;;1.00;;
29030;SDS011;16122;50.236;11.734;2023-07-30T00:47:20;1.87;;;1.00;;
29030;SDS011;16122;50.236;11.734;2023-07-30T00:49:47;1.70;;;0.90;;
29030;SDS011;16122;50.236;11.734;2023-07-30T00:52:15;1.03;;;0.93;;
29030;SDS011;16122;50.236;11.734;2023-07-30T00:54:43;1.00;;;0.90;;
29030;SDS011;16122;50.236;11.734;2023-07-30T00:57:09;1.67;;;1.10;;
29030;SDS011;16122;50.236;11.734;2023-07-30T00:59:35;1.00;;;0.83;;
29030;SDS011;16122;50.236;11.734;2023-07-30T01:02:02;1.40;;;1.00;;
29030;SDS011;16122;50.236;11.734;2023-07-30T01:04:29;2.27;;;0.90;;
29030;SDS011;16122;50.236;11.734;2023-07-30T01:06:55;1.20;;;1.00;;
29030;SDS011;16122;50.236;11.734;2023-07-30T01:09:21;1.93;;;1.13;;
29030;SDS011;16122;50.236;11.734;2023-07-30T01:11:48;1.03;;;0.93;;
29030;SDS011;16122;50.236;11.734;2023-07-30T01:14:14;1.27;;;1.17;;
29030;SDS011;16122;50.236;11.734;2023-07-30T01:16:41;1.50;;;1.00;;
29030;SDS011;16122;50.236;11.734;2023-07-30T01:19:07;1.20;;;1.00;;
29030;SDS011;16122;50.236;11.734;2023-07-30T01:21:33;1.10;;;1.00;;
29030;SDS011;16122;50.236;11.734;2023-07-30T01:24:00;0.93;;;0.93;;
29030;SDS011;16122;50.236;11.734;2023-07-30T01:26:27;0.83;;;0.80;;
29030;SDS011;16122;50.236;11.734;2023-07-30T01:29:00;1.30;;;1.00;;
29030;SDS011;16122;50.236;11.734;2023-07-30T01:31:27;1.23;;;0.90;;
29030;SDS011;16122;50.236;11.734;2023-07-30T01:33:56;2.43;;;1.03;;
29030;SDS011;16122;50.236;11.734;2023-07-30T01:36:24;0.90;;;0.90;;
29030;SDS011;16122;50.236;11.734;2023-07-30T01:38:51;1.00;;;0.90;;
29030;SDS011;16122;50.236;11.734;2023-07-30T01:41:18;1.23;;;1.13;;
29030;SDS011;16122;50.236;11.734;2023-07-30T01:43:44;1.87;;;1.17;;
29030;SDS011;16122;50.236;11.734;2023-07-30T01:46:10;1.00;;;0.90;;
29030;SDS011;16122;50.236;11.734;2023-07-30T01:48:36;0.97;;;0.97;;
29030;SDS011;16122;50.236;11.734;2023-07-30T01:51:02;1.00;;;0.90;;
29030;SDS011;16122;50.236;11.734;2023-07-30T01:53:28;1.00;;;0.90;;
29030;SDS011;16122;50.236;11.734;2023-07-30T01:55:54;1.43;;;0.90;;
29030;SDS011;16122;50.236;11.734;2023-07-30T01:58:19;1.00;;;0.87;;
29030;SDS011;16122;50.236;11.734;2023-07-30T02:00:45;1.20;;;1.07;;
29030;SDS011;16122;50.236;11.734;2023-07-30T02:03:12;1.73;;;1.07;;
29030;SDS011;16122;50.236;11.734;2023-07-30T02:05:37;1.10;;;1.00;;
29030;SDS011;16122;50.236;11.734;2023-07-30T02:08:03;1.93;;;1.00;;
29030;SDS011;16122;50.236;11.734;2023-07-30T02:10:29;0.80;;;0.80;;
29030;SDS011;16122;50.236;11.734;2023-07-30T02:12:55;1.10;;;1.00;;
29030;SDS011;16122;50.236;11.734;2023-07-30T02:15:21;1.77;;;1.20;;
29030;SDS011;16122;50.236;11.734;2023-07-30T02:17:47;1.10;;;0.90;;
29030;SDS011;16122;50.236;11.734;2023-07-30T02:20:13;1.80;;;1.00;;
29030;SDS011;16122;50.236;11.734;2023-07-30T02:22:40;1.00;;;1.00;;
29030;SDS011;16122;50.236;11.734;2023-07-30T02:25:06;1.67;;;0.90;;
29030;SDS011;16122;50.236;11.734;2023-07-30T02:27:32;1.53;;;1.40;;
29030;SDS011;16122;50.236;11.734;2023-07-30T02:29:57;1.30;;;0.87;;
29030;SDS011;16122;50.236;11.734;2023-07-30T02:32:23;1.03;;;1.00;;
29030;SDS011;16122;50.236;11.734;2023-07-30T02:34:49;1.20;;;1.00;;
29030;SDS011;16122;50.236;11.734;2023-07-30T02:37:15;1.00;;;0.90;;
29030;SDS011;16122;50.236;11.734;2023-07-30T02:39:41;1.10;;;1.00;;
29030;SDS011;16122;50.236;11.734;2023-07-30T02:42:07;1.30;;;0.97;;
29030;SDS011;16122;50.236;11.734;2023-07-30T02:44:33;1.13;;;1.00;;
29030;SDS011;16122;50.236;11.734;2023-07-30T02:46:59;0.93;;;0.93;;
29030;SDS011;16122;50.236;11.734;2023-07-30T02:49:24;0.97;;;0.87;;
29030;SDS011;16122;50.236;11.734;2023-07-30T02:51:50;1.30;;;1.10;;
29030;SDS011;16122;50.236;11.734;2023-07-30T02:54:16;1.00;;;0.90;;
29030;SDS011;16122;50.236;11.734;2023-07-30T02:56:42;1.33;;;1.20;;
29030;SDS011;16122;50.236;11.734;2023-07-30T02:59:08;1.83;;;1.10;;
29030;SDS011;16122;50.236;11.734;2023-07-30T03:01:34;0.80;;;0.80;;
29030;SDS011;16122;50.236;11.734;2023-07-30T03:04:00;1.10;;;1.00;;
29030;SDS011;16122;50.236;11.734;2023-07-30T03:06:27;1.07;;;0.90;;
29030;SDS011;16122;50.236;11.734;2023-07-30T03:08:53;1.20;;;1.10;;
29030;SDS011;16122;50.236;11.734;2023-07-30T03:11:18;1.47;;;0.93;;
29030;SDS011;16122;50.236;11.734;2023-07-30T03:13:44;0.80;;;0.80;;
29030;SDS011;16122;50.236;11.734;2023-07-30T03:16:10;1.20;;;1.10;;
29030;SDS011;16122;50.236;11.734;2023-07-30T03:18:36;1.07;;;0.97;;
29030;SDS011;16122;50.236;11.734;2023-07-30T03:21:02;1.63;;;1.00;;
29030;SDS011;16122;50.236;11.734;2023-07-30T03:23:28;2.07;;;1.40;;
29030;SDS011;16122;50.236;11.734;2023-07-30T03:25:54;1.33;;;1.07;;
29030;SDS011;16122;50.236;11.734;2023-07-30T03:28:20;1.90;;;1.10;;
29030;SDS011;16122;50.236;11.734;2023-07-30T03:30:46;0.80;;;0.80;;
29030;SDS011;16122;50.236;11.734;2023-07-30T03:33:12;1.30;;;1.20;;
29030;SDS011;16122;50.236;11.734;2023-07-30T03:35:37;1.43;;;0.90;;
29030;SDS011;16122;50.236;11.734;2023-07-30T03:38:05;1.03;;;0.90;;
29030;SDS011;16122;50.236;11.734;2023-07-30T03:40:30;2.07;;;1.10;;
29030;SDS011;16122;50.236;11.734;2023-07-30T03:42:57;1.20;;;1.10;;
29030;SDS011;16122;50.236;11.734;2023-07-30T03:45:23;1.10;;;1.00;;
29030;SDS011;16122;50.236;11.734;2023-07-30T03:47:49;0.80;;;0.80;;
29030;SDS011;16122;50.236;11.734;2023-07-30T03:50:14;1.23;;;0.90;;
29030;SDS011;16122;50.236;11.734;2023-07-30T03:52:40;0.70;;;0.70;;
29030;SDS011;16122;50.236;11.734;2023-07-30T03:55:07;0.87;;;0.87;;
29030;SDS011;16122;50.236;11.734;2023-07-30T03:57:33;1.23;;;1.13;;
29030;SDS011;16122;50.236;11.734;2023-07-30T04:00:01;1.40;;;1.00;;
29030;SDS011;16122;50.236;11.734;2023-07-30T04:02:28;1.33;;;1.00;;
29030;SDS011;16122;50.236;11.734;2023-07-30T04:04:54;1.03;;;0.90;;
29030;SDS011;16122;50.236;11.734;2023-07-30T04:07:19;1.10;;;1.00;;
29030;SDS011;16122;50.236;11.734;2023-07-30T04:09:45;1.10;;;1.00;;
29030;SDS011;16122;50.236;11.734;2023-07-30T04:12:11;0.80;;;0.80;;
29030;SDS011;16122;50.236;11.734;2023-07-30T04:14:37;1.13;;;1.03;;
29030;SDS011;16122;50.236;11.734;2023-07-30T04:17:03;1.97;;;1.30;;
29030;SDS011;16122;50.236;11.734;2023-07-30T04:19:29;1.00;;;0.90;;
29030;SDS011;16122;50.236;11.734;2023-07-30T04:21:55;0.80;;;0.80;;
29030;SDS011;16122;50.236;11.734;2023-07-30T04:24:21;0.93;;;0.90;;
29030;SDS011;16122;50.236;11.734;2023-07-30T04:26:47;1.43;;;0.83;;
29030;SDS011;16122;50.236;11.734;2023-07-30T04:29:13;1.00;;;0.90;;
29030;SDS011;16122;50.236;11.734;2023-07-30T04:31:40;0.90;;;0.80;;
29030;SDS011;16122;50.236;11.734;2023-07-30T04:34:06;0.97;;;0.90;;
29030;SDS011;16122;50.236;11.734;2023-07-30T04:36:32;0.80;;;0.80;;
29030;SDS011;16122;50.236;11.734;2023-07-30T04:38:58;1.10;;;1.00;;
29030;SDS011;16122;50.236;11.734;2023-07-30T04:41:29;2.37;;;1.03;;
29030;SDS011;16122;50.236;11.734;2023-07-30T04:43:57;1.53;;;0.93;;
29030;SDS011;16122;50.236;11.734;2023-07-30T04:46:24;0.97;;;0.90;;
29030;SDS011;16122;50.236;11.734;2023-07-30T04:48:51;1.80;;;1.60;;
29030;SDS011;16122;50.236;11.734;2023-07-30T04:51:18;1.00;;;0.90;;
29030;SDS011;16122;50.236;11.734;2023-07-30T04:53:45;1.33;;;1.23;;
29030;SDS011;16122;50.236;11.734;2023-07-30T04:56:11;1.40;;;1.03;;
29030;SDS011;16122;50.236;11.734;2023-07-30T04:58:37;1.60;;;1.23;;
29030;SDS011;16122;50.236;11.734;2023-07-30T05:01:03;5.97;;;1.00;;
29030;SDS011;16122;50.236;11.734;2023-07-30T05:03:29;1.73;;;0.90;;
29030;SDS011;16122;50.236;11.734;2023-07-30T05:05:55;1.37;;;1.27;;
29030;SDS011;16122;50.236;11.734;2023-07-30T05:08:21;1.10;;;0.90;;
29030;SDS011;16122;50.236;11.734;2023-07-30T05:10:47;19.97;;;1.33;;
29030;SDS011;16122;50.236;11.734;2023-07-30T05:13:13;1.10;;;1.00;;
29030;SDS011;16122;50.236;11.734;2023-07-30T05:15:38;1.47;;;1.00;;
29030;SDS011;16122;50.236;11.734;2023-07-30T05:18:04;1.57;;;1.33;;
29030;SDS011;16122;50.236;11.734;2023-07-30T05:20:30;1.33;;;1.20;;
29030;SDS011;16122;50.236;11.734;2023-07-30T05:22:56;1.47;;;0.90;;
29030;SDS011;16122;50.236;11.734;2023-07-30T05:25:22;1.87;;;1.07;;
29030;SDS011;16122;50.236;11.734;2023-07-30T05:27:48;1.10;;;1.00;;
29030;SDS011;16122;50.236;11.734;2023-07-30T05:30:14;2.63;;;1.03;;
29030;SDS011;16122;50.236;11.734;2023-07-30T05:32:40;1.00;;;0.90;;
29030;SDS011;16122;50.236;11.734;2023-07-30T05:35:06;1.63;;;1.20;;
29030;SDS011;16122;50.236;11.734;2023-07-30T05:37:32;1.00;;;0.90;;
29030;SDS011;16122;50.236;11.734;2023-07-30T05:39:57;1.30;;;1.20;;
29030;SDS011;16122;50.236;11.734;2023-07-30T05:42:23;1.10;;;1.00;;
29030;SDS011;16122;50.236;11.734;2023-07-30T05:44:49;1.80;;;1.30;;
29030;SDS011;16122;50.236;11.734;2023-07-30T05:47:15;1.27;;;1.00;;
29030;SDS011;16122;50.236;11.734;2023-07-30T05:49:41;1.30;;;0.93;;
29030;SDS011;16122;50.236;11.734;2023-07-30T05:52:07;3.00;;;1.10;;
29030;SDS011;16122;50.236;11.734;2023-07-30T05:54:32;1.10;;;1.00;;
29030;SDS011;16122;50.236;11.734;2023-07-30T05:56:58;1.20;;;1.10;;
29030;SDS011;16122;50.236;11.734;2023-07-30T05:59:24;6.00;;;0.97;;
29030;SDS011;16122;50.236;11.734;2023-07-30T06:01:50;3.83;;;1.40;;
29030;SDS011;16122;50.236;11.734;2023-07-30T06:04:16;1.17;;;1.07;;
29030;SDS011;16122;50.236;11.734;2023-07-30T06:06:42;0.90;;;0.90;;
29030;SDS011;16122;50.236;11.734;2023-07-30T06:09:07;1.20;;;1.10;;
29030;SDS011;16122;50.236;11.734;2023-07-30T06:11:33;3.83;;;1.60;;
29030;SDS011;16122;50.236;11.734;2023-07-30T06:13:59;1.47;;;1.30;;
29030;SDS011;16122;50.236;11.734;2023-07-30T06:16:25;1.20;;;1.10;;
29030;SDS011;16122;50.236;11.734;2023-07-30T06:18:50;2.90;;;1.20;;
29030;SDS011;16122;50.236;11.734;2023-07-30T06:21:16;2.93;;;1.07;;
29030;SDS011;16122;50.236;11.734;2023-07-30T06:23:42;1.47;;;1.00;;
29030;SDS011;16122;50.236;11.734;2023-07-30T06:26:08;1.20;;;0.90;;
29030;SDS011;16122;50.236;11.734;2023-07-30T06:28:34;3.50;;;0.97;;
29030;SDS011;16122;50.236;11.734;2023-07-30T06:31:01;1.20;;;1.10;;
29030;SDS011;16122;50.236;11.734;2023-07-30T06:33:27;1.03;;;0.93;;
29030;SDS011;16122;50.236;11.734;2023-07-30T06:35:53;2.23;;;1.10;;
29030;SDS011;16122;50.236;11.734;2023-07-30T06:38:19;3.50;;;1.30;;
29030;SDS011;16122;50.236;11.734;2023-07-30T06:40:45;4.40;;;1.17;;
29030;SDS011;16122;50.236;11.734;2023-07-30T06:43:11;2.07;;;1.00;;
29030;SDS011;16122;50.236;11.734;2023-07-30T06:45:37;1.10;;;0.97;;
29030;SDS011;16122;50.236;11.734;2023-07-30T06:48:03;2.00;;;1.20;;
29030;SDS011;16122;50.236;11.734;2023-07-30T06:50:29;1.23;;;1.07;;
29030;SDS011;16122;50.236;11.734;2023-07-30T06:52:54;3.20;;;1.53;;
29030;SDS011;16122;50.236;11.734;2023-07-30T06:55:20;2.83;;;1.47;;
29030;SDS011;16122;50.236;11.734;2023-07-30T06:57:46;1.30;;;1.20;;
29030;SDS011;16122;50.236;11.734;2023-07-30T07:00:12;1.97;;;1.37;;
29030;SDS011;16122;50.236;11.734;2023-07-30T07:02:39;4.33;;;1.40;;
29030;SDS011;16122;50.236;11.734;2023-07-30T07:05:05;1.57;;;1.47;;
29030;SDS011;16122;50.236;11.734;2023-07-30T07:07:31;1.47;;;1.37;;
29030;SDS011;16122;50.236;11.734;2023-07-30T07:09:57;1.87;;;1.43;;
29030;SDS011;16122;50.236;11.734;2023-07-30T07:12:23;3.73;;;1.13;;
29030;SDS011;16122;50.236;11.734;2023-07-30T07:14:48;2.10;;;1.40;;
29030;SDS011;16122;50.236;11.734;2023-07-30T07:17:14;1.33;;;1.17;;
29030;SDS011;16122;50.236;11.734;2023-07-30T07:19:40;2.43;;;1.50;;
29030;SDS011;16122;50.236;11.734;2023-07-30T07:22:06;3.73;;;1.30;;
29030;SDS011;16122;50.236;11.734;2023-07-30T07:24:32;3.03;;;1.67;;
29030;SDS011;16122;50.236;11.734;2023-07-30T07:26:57;3.60;;;1.13;;
29030;SDS011;16122;50.236;11.734;2023-07-30T07:29:23;1.50;;;1.40;;
29030;SDS011;16122;50.236;11.734;2023-07-30T07:31:49;1.60;;;1.50;;
29030;SDS011;16122;50.236;11.734;2023-07-30T07:34:15;1.60;;;1.50;;
29030;SDS011;16122;50.236;11.734;2023-07-30T07:36:41;3.23;;;1.50;;
29030;SDS011;16122;50.236;11.734;2023-07-30T07:39:07;4.37;;;1.40;;
29030;SDS011;16122;50.236;11.734;2023-07-30T07:41:33;2.70;;;1.20;;
29030;SDS011;16122;50.236;11.734;2023-07-30T07:43:58;1.47;;;1.10;;
29030;SDS011;16122;50.236;11.734;2023-07-30T07:46:24;1.77;;;1.57;;
29030;SDS011;16122;50.236;11.734;2023-07-30T07:48:52;4.27;;;1.50;;
29030;SDS011;16122;50.236;11.734;2023-07-30T07:51:18;1.60;;;1.30;;
29030;SDS011;16122;50.236;11.734;2023-07-30T07:53:44;2.67;;;1.70;;
29030;SDS011;16122;50.236;11.734;2023-07-30T07:56:10;1.73;;;1.63;;
29030;SDS011;16122;50.236;11.734;2023-07-30T07:58:35;2.53;;;1.90;;
29030;SDS011;16122;50.236;11.734;2023-07-30T08:01:01;5.43;;;1.50;;
29030;SDS011;16122;50.236;11.734;2023-07-30T08:03:27;2.83;;;2.20;;
29030;SDS011;16122;50.236;11.734;2023-07-30T08:05:53;5.10;;;1.73;;
29030;SDS011;16122;50.236;11.734;2023-07-30T08:08:19;4.10;;;2.00;;
29030;SDS011;16122;50.236;11.734;2023-07-30T08:10:45;2.93;;;2.37;;
29030;SDS011;16122;50.236;11.734;2023-07-30T08:13:15;4.00;;;2.90;;
29030;SDS011;16122;50.236;11.734;2023-07-30T08:15:41;3.07;;;2.87;;
29030;SDS011;16122;50.236;11.734;2023-07-30T08:18:07;3.13;;;2.87;;
29030;SDS011;16122;50.236;11.734;2023-07-30T08:20:33;2.77;;;2.57;;
29030;SDS011;16122;50.236;11.734;2023-07-30T08:22:59;2.80;;;2.60;;
29030;SDS011;16122;50.236;11.734;2023-07-30T08:25:25;4.27;;;3.17;;
29030;SDS011;16122;50.236;11.734;2023-07-30T08:27:50;4.00;;;2.87;;
29030;SDS011;16122;50.236;11.734;2023-07-30T08:30:16;2.93;;;2.60;;
29030;SDS011;16122;50.236;11.734;2023-07-30T08:32:42;2.70;;;2.50;;
29030;SDS011;16122;50.236;11.734;2023-07-30T08:35:09;2.90;;;2.70;;
29030;SDS011;16122;50.236;11.734;2023-07-30T08:37:35;2.97;;;2.60;;
29030;SDS011;16122;50.236;11.734;2023-07-30T08:40:01;2.67;;;2.47;;
29030;SDS011;16122;50.236;11.734;2023-07-30T08:42:28;2.67;;;2.53;;
29030;SDS011;16122;50.236;11.734;2023-07-30T08:44:54;2.37;;;2.27;;
29030;SDS011;16122;50.236;11.734;2023-07-30T08:47:19;2.83;;;2.50;;
29030;SDS011;16122;50.236;11.734;2023-07-30T08:49:45;2.30;;;2.20;;
29030;SDS011;16122;50.236;11.734;2023-07-30T08:52:11;3.70;;;2.23;;
29030;SDS011;16122;50.236;11.734;2023-07-30T08:54:38;2.40;;;2.17;;
29030;SDS011;16122;50.236;11.734;2023-07-30T08:57:06;3.10;;;2.53;;
29030;SDS011;16122;50.236;11.734;2023-07-30T08:59:42;2.70;;;2.40;;
29030;SDS011;16122;50.236;11.734;2023-07-30T09:02:17;2.43;;;2.27;;
29030;SDS011;16122;50.236;11.734;2023-07-30T09:05:04;2.30;;;2.20;;
29030;SDS011;16122;50.236;11.734;2023-07-30T09:07:30;3.13;;;2.33;;
29030;SDS011;16122;50.236;11.734;2023-07-30T09:09:56;2.60;;;2.40;;
29030;SDS011;16122;50.236;11.734;2023-07-30T09:12:41;2.80;;;2.60;;
29030;SDS011;16122;50.236;11.734;2023-07-30T09:15:07;2.00;;;1.90;;
29030;SDS011;16122;50.236;11.734;2023-07-30T09:17:34;2.87;;;2.67;;
29030;SDS011;16122;50.236;11.734;2023-07-30T09:20:00;2.60;;;2.40;;
29030;SDS011;16122;50.236;11.734;2023-07-30T09:22:30;3.00;;;2.37;;
29030;SDS011;16122;50.236;11.734;2023-07-30T09:25:07;2.63;;;2.43;;
29030;SDS011;16122;50.236;11.734;2023-07-30T09:27:33;4.50;;;2.40;;
29030;SDS011;16122;50.236;11.734;2023-07-30T09:30:00;2.50;;;2.30;;
29030;SDS011;16122;50.236;11.734;2023-07-30T09:34:54;2.73;;;2.53;;
29030;SDS011;16122;50.236;11.734;2023-07-30T09:37:21;2.90;;;2.20;;
29030;SDS011;16122;50.236;11.734;2023-07-30T09:39:47;2.50;;;2.30;;
29030;SDS011;16122;50.236;11.734;2023-07-30T09:42:13;1.90;;;1.80;;
29030;SDS011;16122;50.236;11.734;2023-07-30T09:44:39;2.67;;;2.10;;
29030;SDS011;16122;50.236;11.734;2023-07-30T09:47:09;3.77;;;2.07;;
29030;SDS011;16122;50.236;11.734;2023-07-30T09:49:36;2.80;;;2.60;;
29030;SDS011;16122;50.236;11.734;2023-07-30T09:52:03;2.23;;;1.90;;
29030;SDS011;16122;50.236;11.734;2023-07-30T09:54:31;2.90;;;2.30;;
29030;SDS011;16122;50.236;11.734;2023-07-30T09:56:58;1.83;;;1.73;;
29030;SDS011;16122;50.236;11.734;2023-07-30T09:59:24;2.30;;;2.03;;
29030;SDS011;16122;50.236;11.734;2023-07-30T10:01:50;1.70;;;1.60;;
29030;SDS011;16122;50.236;11.734;2023-07-30T10:04:21;2.77;;;2.10;;
29030;SDS011;16122;50.236;11.734;2023-07-30T10:09:19;2.03;;;1.83;;
29030;SDS011;16122;50.236;11.734;2023-07-30T10:11:47;2.30;;;2.10;;
29030;SDS011;16122;50.236;11.734;2023-07-30T10:14:16;2.40;;;2.20;;
29030;SDS011;16122;50.236;11.734;2023-07-30T10:16:51;3.00;;;1.73;;
29030;SDS011;16122;50.236;11.734;2023-07-30T10:19:24;2.60;;;1.67;;
29030;SDS011;16122;50.236;11.734;2023-07-30T10:21:53;2.17;;;1.97;;
29030;SDS011;16122;50.236;11.734;2023-07-30T10:24:40;2.33;;;1.80;;
29030;SDS011;16122;50.236;11.734;2023-07-30T10:27:06;2.00;;;1.90;;
29030;SDS011;16122;50.236;11.734;2023-07-30T10:29:35;4.27;;;1.90;;
29030;SDS011;16122;50.236;11.734;2023-07-30T10:32:03;1.90;;;1.80;;
29030;SDS011;16122;50.236;11.734;2023-07-30T10:34:43;1.73;;;1.63;;
29030;SDS011;16122;50.236;11.734;2023-07-30T10:37:10;1.60;;;1.50;;
29030;SDS011;16122;50.236;11.734;2023-07-30T10:39:42;1.63;;;1.53;;
29030;SDS011;16122;50.236;11.734;2023-07-30T10:42:08;1.50;;;1.40;;
29030;SDS011;16122;50.236;11.734;2023-07-30T10:44:34;2.03;;;1.80;;
29030;SDS011;16122;50.236;11.734;2023-07-30T10:47:01;1.67;;;1.57;;
29030;SDS011;16122;50.236;11.734;2023-07-30T10:49:28;1.77;;;1.57;;
29030;SDS011;16122;50.236;11.734;2023-07-30T10:51:55;1.73;;;1.63;;
29030;SDS011;16122;50.236;11.734;2023-07-30T10:54:24;3.17;;;1.40;;
29030;SDS011;16122;50.236;11.734;2023-07-30T10:56:50;1.97;;;1.40;;
29030;SDS011;16122;50.236;11.734;2023-07-30T10:59:17;1.60;;;1.50;;
29030;SDS011;16122;50.236;11.734;2023-07-30T11:01:44;2.17;;;1.40;;
29030;SDS011;16122;50.236;11.734;2023-07-30T11:04:18;2.20;;;2.03;;
29030;SDS011;16122;50.236;11.734;2023-07-30T11:06:46;1.90;;;1.80;;
29030;SDS011;16122;50.236;11.734;2023-07-30T11:11:46;2.70;;;1.60;;
29030;SDS011;16122;50.236;11.734;2023-07-30T11:14:17;5.33;;;1.67;;
29030;SDS011;16122;50.236;11.734;2023-07-30T11:16:48;2.10;;;1.90;;
29030;SDS011;16122;50.236;11.734;2023-07-30T11:19:17;1.70;;;1.60;;
29030;SDS011;16122;50.236;11.734;2023-07-30T11:21:52;1.50;;;1.40;;
29030;SDS011;16122;50.236;11.734;2023-07-30T11:24:20;1.67;;;1.57;;
29030;SDS011;16122;50.236;11.734;2023-07-30T11:26:56;1.80;;;1.70;;
29030;SDS011;16122;50.236;11.734;2023-07-30T11:29:23;2.23;;;1.70;;
29030;SDS011;16122;50.236;11.734;2023-07-30T11:31:49;2.33;;;1.93;;
29030;SDS011;16122;50.236;11.734;2023-07-30T11:34:15;3.13;;;2.27;;
29030;SDS011;16122;50.236;11.734;2023-07-30T11:36:41;1.97;;;1.77;;
29030;SDS011;16122;50.236;11.734;2023-07-30T11:39:08;1.57;;;1.47;;
29030;SDS011;16122;50.236;11.734;2023-07-30T11:41:35;2.00;;;1.90;;
29030;SDS011;16122;50.236;11.734;2023-07-30T11:44:01;2.00;;;1.90;;
29030;SDS011;16122;50.236;11.734;2023-07-30T11:46:28;2.40;;;2.20;;
29030;SDS011;16122;50.236;11.734;2023-07-30T11:49:10;1.70;;;1.60;;
29030;SDS011;16122;50.236;11.734;2023-07-30T11:51:38;5.03;;;1.60;;
29030;SDS011;16122;50.236;11.734;2023-07-30T11:54:03;1.80;;;1.70;;
29030;SDS011;16122;50.236;11.734;2023-07-30T11:56:32;2.00;;;1.90;;
29030;SDS011;16122;50.236;11.734;2023-07-30T11:59:09;1.97;;;1.87;;
29030;SDS011;16122;50.236;11.734;2023-07-30T12:01:35;1.60;;;1.50;;
29030;SDS011;16122;50.236;11.734;2023-07-30T12:04:03;1.60;;;1.50;;
29030;SDS011;16122;50.236;11.734;2023-07-30T12:06:45;1.83;;;1.70;;
29030;SDS011;16122;50.236;11.734;2023-07-30T12:11:53;1.60;;;1.50;;
29030;SDS011;16122;50.236;11.734;2023-07-30T12:14:24;1.53;;;1.43;;
29030;SDS011;16122;50.236;11.734;2023-07-30T12:16:55;1.80;;;1.70;;
29030;SDS011;16122;50.236;11.734;2023-07-30T12:19:21;1.60;;;1.50;;
29030;SDS011;16122;50.236;11.734;2023-07-30T12:21:47;1.50;;;1.40;;
29030;SDS011;16122;50.236;11.734;2023-07-30T12:24:13;4.93;;;1.73;;
29030;SDS011;16122;50.236;11.734;2023-07-30T12:26:39;1.60;;;1.50;;
29030;SDS011;16122;50.236;11.734;2023-07-30T12:29:05;1.70;;;1.60;;
29030;SDS011;16122;50.236;11.734;2023-07-30T12:31:30;1.70;;;1.60;;
29030;SDS011;16122;50.236;11.734;2023-07-30T12:33:56;1.60;;;1.50;;
29030;SDS011;16122;50.236;11.734;2023-07-30T12:36:22;2.37;;;1.77;;
29030;SDS011;16122;50.236;11.734;2023-07-30T12:38:48;1.70;;;1.60;;
29030;SDS011;16122;50.236;11.734;2023-07-30T12:41:14;1.77;;;1.50;;
29030;SDS011;16122;50.236;11.734;2023-07-30T12:43:40;1.73;;;1.63;;
29030;SDS011;16122;50.236;11.734;2023-07-30T12:46:05;1.73;;;1.57;;
29030;SDS011;16122;50.236;11.734;2023-07-30T12:48:31;2.03;;;1.73;;
29030;SDS011;16122;50.236;11.734;2023-07-30T12:50:58;3.10;;;1.90;;
29030;SDS011;16122;50.236;11.734;2023-07-30T12:53:23;1.67;;;1.43;;
29030;SDS011;16122;50.236;11.734;2023-07-30T12:55:50;2.17;;;1.87;;
29030;SDS011;16122;50.236;11.734;2023-07-30T12:58:16;2.37;;;1.70;;
29030;SDS011;16122;50.236;11.734;2023-07-30T13:00:42;1.43;;;1.33;;
29030;SDS011;16122;50.236;11.734;2023-07-30T13:03:08;1.47;;;1.37;;
29030;SDS011;16122;50.236;11.734;2023-07-30T13:05:33;5.73;;;1.70;;
29030;SDS011;16122;50.236;11.734;2023-07-30T13:07:59;5.90;;;1.73;;
29030;SDS011;16122;50.236;11.734;2023-07-30T13:10:25;2.50;;;1.87;;
29030;SDS011;16122;50.236;11.734;2023-07-30T13:12:51;2.00;;;1.80;;
29030;SDS011;16122;50.236;11.734;2023-07-30T13:15:17;1.73;;;1.63;;
29030;SDS011;16122;50.236;11.734;2023-07-30T13:17:43;2.07;;;1.87;;
29030;SDS011;16122;50.236;11.734;2023-07-30T13:20:09;2.30;;;1.73;;
29030;SDS011;16122;50.236;11.734;2023-07-30T13:22:35;2.07;;;1.97;;
29030;SDS011;16122;50.236;11.734;2023-07-30T13:25:00;1.73;;;1.63;;
29030;SDS011;16122;50.236;11.734;2023-07-30T13:27:26;2.00;;;1.90;;
29030;SDS011;16122;50.236;11.734;2023-07-30T13:29:52;2.07;;;1.77;;
29030;SDS011;16122;50.236;11.734;2023-07-30T13:32:18;3.37;;;1.97;;
29030;SDS011;16122;50.236;11.734;2023-07-30T13:34:44;1.80;;;1.70;;
29030;SDS011;16122;50.236;11.734;2023-07-30T13:37:10;2.07;;;1.87;;
29030;SDS011;16122;50.236;11.734;2023-07-30T13:39:36;2.47;;;1.73;;
29030;SDS011;16122;50.236;11.734;2023-07-30T13:42:01;2.53;;;2.10;;
29030;SDS011;16122;50.236;11.734;2023-07-30T13:44:28;2.40;;;1.87;;
29030;SDS011;16122;50.236;11.734;2023-07-30T13:46:54;2.47;;;2.27;;
29030;SDS011;16122;50.236;11.734;2023-07-30T13:49:20;2.70;;;2.10;;
29030;SDS011;16122;50.236;11.734;2023-07-30T13:51:45;2.07;;;1.97;;
29030;SDS011;16122;50.236;11.734;2023-07-30T13:54:11;2.80;;;2.00;;
29030;SDS011;16122;50.236;11.734;2023-07-30T13:56:37;1.60;;;1.50;;
29030;SDS011;16122;50.236;11.734;2023-07-30T13:59:04;2.67;;;2.47;;
29030;SDS011;16122;50.236;11.734;2023-07-30T14:01:30;2.13;;;1.97;;
29030;SDS011;16122;50.236;11.734;2023-07-30T14:03:56;1.87;;;1.77;;
29030;SDS011;16122;50.236;11.734;2023-07-30T14:06:22;3.27;;;2.10;;
29030;SDS011;16122;50.236;11.734;2023-07-30T14:08:48;1.83;;;1.70;;
29030;SDS011;16122;50.236;11.734;2023-07-30T14:11:14;1.70;;;1.60;;
29030;SDS011;16122;50.236;11.734;2023-07-30T14:13:40;4.60;;;1.70;;
29030;SDS011;16122;50.236;11.734;2023-07-30T14:16:06;1.87;;;1.77;;
29030;SDS011;16122;50.236;11.734;2023-07-30T14:18:32;2.20;;;2.00;;
29030;SDS011;16122;50.236;11.734;2023-07-30T14:20:58;2.07;;;1.90;;
29030;SDS011;16122;50.236;11.734;2023-07-30T14:23:24;2.10;;;2.00;;
29030;SDS011;16122;50.236;11.734;2023-07-30T14:25:50;2.13;;;2.00;;
29030;SDS011;16122;50.236;11.734;2023-07-30T14:28:16;1.77;;;1.67;;
29030;SDS011;16122;50.236;11.734;2023-07-30T14:30:42;1.70;;;1.40;;
29030;SDS011;16122;50.236;11.734;2023-07-30T14:33:10;1.80;;;1.43;;
29030;SDS011;16122;50.236;11.734;2023-07-30T14:35:36;2.13;;;1.83;;
29030;SDS011;16122;50.236;11.734;2023-07-30T14:38:03;1.47;;;1.37;;
29030;SDS011;16122;50.236;11.734;2023-07-30T14:40:30;2.77;;;2.20;;